Create Tblcommutelog Verified Points Advance Search
| # | Trip ID | Id Commuter | Trip Date | Trip Num | Current Lat | Current Lng | Delta Distance | Current Time | Activity | Activity Confidence | Current Speed | |
|---|---|---|---|---|---|---|---|---|---|---|---|---|
| 69541 | 260216_789667_16658556_1657 | 789667 | (not set) | (not set) | 39.058603774793 | -77.121151965183 | 13.0605 | 2026-02-16 17:41:54 | in_vehicle | 100 | 0 | |
| 69542 | 260216_789667_16658556_1657 | 789667 | (not set) | (not set) | 39.058603774793 | -77.121151965183 | 13.0605 | 2026-02-16 17:41:54 | in_vehicle | 100 | 0 | |
| 69543 | 260216_788608_16657271_1730 | 788608 | (not set) | (not set) | 38.89695154463 | -77.006329677615 | 1.2662 | 2026-02-16 17:41:58 | in_vehicle | 100 | 2.2530778652981 | |
| 69544 | 260216_788608_16657271_1731 | 788608 | (not set) | (not set) | 38.89695154463 | -77.006329677615 | 1.2662 | 2026-02-16 17:41:58 | in_vehicle | 100 | 2.2530778652981 | |
| 69545 | 260216_786980_16500126_1734 | 786980 | (not set) | (not set) | 38.833898306579 | -77.119399987251 | 4.7609 | 2026-02-16 17:42:01 | in_vehicle | 100 | 3.2946793387395 | |
| 69546 | 260216_785924_16654160_1726 | 785924 | (not set) | (not set) | 39.002574541281 | -76.965790663184 | 1.9798 | 2026-02-16 17:42:01 | on_bicycle | 100 | -0.44703925898772 | |
| 69547 | 260216_785924_16654160_1726 | 785924 | (not set) | (not set) | 39.002592649452 | -76.966082044211 | 1.9798 | 2026-02-16 17:42:02 | on_bicycle | 100 | -0.44703925898772 | |
| 69548 | 260216_785924_16654160_1726 | 785924 | (not set) | (not set) | 39.002592649452 | -76.966082044211 | 1.9798 | 2026-02-16 17:42:02 | on_bicycle | 100 | -0.44703925898772 | |
| 69549 | 260216_785924_16654160_1726 | 785924 | (not set) | (not set) | 39.002574541281 | -76.965790663184 | 1.9798 | 2026-02-16 17:42:01 | on_bicycle | 100 | -0.44703925898772 | |
| 69550 | 260216_785924_16654160_1726 | 785924 | (not set) | (not set) | 39.002574541281 | -76.965790663184 | 1.9798 | 2026-02-16 17:42:01 | on_bicycle | 100 | -0.44703925898772 | |
| 69551 | 260216_785924_16654160_1726 | 785924 | (not set) | (not set) | 39.002574541281 | -76.965790663184 | 1.9798 | 2026-02-16 17:42:01 | on_bicycle | 100 | -0.44703925898772 | |
| 69552 | 260216_766077_16632982_1718 | 766077 | (not set) | (not set) | 38.830704031266 | -77.19784554453 | 6.9014 | 2026-02-16 17:42:07 | in_vehicle | 100 | 2.950459109319 | |
| 69553 | 260216_766077_16632982_1718 | 766077 | (not set) | (not set) | 38.830704031266 | -77.19784554453 | 6.9014 | 2026-02-16 17:42:07 | in_vehicle | 100 | 2.950459109319 | |
| 69554 | 260216_785924_16654160_1726 | 785924 | (not set) | (not set) | 39.002641808075 | -76.966734806592 | 2.0308 | 2026-02-16 17:42:08 | on_bicycle | 100 | 3.5539621089524 | |
| 69555 | 260216_785924_16654160_1726 | 785924 | (not set) | (not set) | 39.002641808075 | -76.966734806592 | 2.0308 | 2026-02-16 17:42:08 | on_bicycle | 100 | 3.5539621089524 | |
| 69556 | 260216_766077_16632982_1718 | 766077 | (not set) | (not set) | 38.830681960734 | -77.197718474392 | 6.9084 | 2026-02-16 17:42:09 | in_vehicle | 100 | 2.4855382799717 | |
| 69557 | 260216_766077_16632982_1718 | 766077 | (not set) | (not set) | 38.830681960734 | -77.197718474392 | 6.9084 | 2026-02-16 17:42:09 | in_vehicle | 100 | 2.4855382799717 | |
| 69558 | 260216_781236_16648911_1726 | 781236 | (not set) | (not set) | 38.960997878702 | -77.059815340161 | 3.3862 | 2026-02-16 17:42:11 | unknown | 100 | 3.8758303754236 | |
| 69559 | 260216_789319_16658161_1714 | 789319 | (not set) | (not set) | 38.901026239242 | -77.035110844209 | 3.7522 | 2026-02-16 17:42:13 | in_vehicle | 100 | -0.44703925898772 | |
| 69560 | 260216_766077_16632982_1718 | 766077 | (not set) | (not set) | 38.830489359588 | -77.196711582118 | 6.9643 | 2026-02-16 17:42:22 | in_vehicle | 100 | 4.224520997434 |